Latest Coastal Weather Observations for Smithton

IDV60701

Issued at 10:25 am EST Thursday 24 July 2014 (issued every 10 minutes, with the page automatically refreshed every 10 minutes)

About coastal observations | Map of coastal stations | Coastal observations for VIC | Marine services | Other Formats
Station Details ID: 091292 Name: SMITHTON AERODROME Lat: -40.83 Lon: 145.08 Height: 7.5 m
Data from the previous 72 hours. | See also: Recent months at Smithton
Date/Time
EST
Temp

°C
Wind Pressure Rain
since 9am
mm
Weather Cloud Vis
km
Sea
Height
m
Swell
Dir
 
Speed
knots
Gust
knots
hPa Trend Height
m
Period
s
Dir
24/10:00am 11.8 E 14 20 1017.9 - 0.0 - - - - - - -
24/09:30am 11.0 E 12 16 1017.9 - 0.0 - - - - - - -
24/09:00am 10.1 E 12 16 1017.6 - 0.0 - - - - - - -
24/08:30am 9.6 E 12 16 1017.7 - 0.0 - - - - - - -
24/08:00am 9.3 E 11 15 1017.8 - 0.0 - - - - - - -
24/07:30am 9.2 E 13 16 1017.8 - 0.0 - - - - - - -
24/07:00am 8.9 E 13 16 1017.6 - 0.0 - - - - - - -
24/06:30am 8.7 E 12 16 1017.6 - 0.0 - - - - - - -
24/06:00am 8.7 E 11 15 1017.6 - 0.0 - - - - - - -
24/05:30am 8.9 E 12 16 1017.5 - 0.0 - - - - - - -
24/05:00am 8.6 E 11 15 1017.9 - 0.0 - - - - - - -
24/04:30am 8.8 E 11 15 1017.9 - 0.0 - - - - - - -
24/04:00am 8.9 E 12 17 1018.0 - 0.0 - - - - - - -
24/03:30am 8.2 E 8 11 1018.2 - 0.0 - - - - - - -
24/03:00am 7.4 E 7 9 1018.3 - 0.0 - - - - - - -
24/02:30am 7.5 ESE 9 11 1018.5 - 0.0 - - - - - - -
24/02:00am 7.8 E 7 11 1018.7 - 0.0 - - - - - - -
24/01:30am 8.0 E 9 11 1018.8 - 0.0 - - - - - - -
24/01:00am 7.7 E 8 11 1019.0 - 0.0 - - - - - - -
24/12:30am 7.6 ESE 7 8 1019.2 - 0.0 - - - - - - -
24/12:00am 7.6 ESE 6 8 1019.5 - 0.0 - - - - - - -
 
Date/Time
EST
Temp

°C
Wind Pressure Rain
since 9am
mm
Weather Cloud Vis
km
Sea
Height
m
Swell
Dir
 
Speed
knots
Gust
knots
hPa Trend Height
m
Period
s
Dir
23/11:30pm 7.4 ESE 6 6 1019.9 - 0.0 - - - - - - -
23/11:00pm 7.1 E 6 7 1020.1 - 0.0 - - - - - - -
23/10:30pm 6.3 E 6 7 1020.3 - 0.0 - - - - - - -
23/10:00pm 5.6 E 6 7 1020.6 - 0.0 - - - - - - -
23/09:30pm 6.1 E 6 6 1021.0 - 0.0 - - - - - - -
23/09:00pm 6.5 E 5 6 1021.0 - 0.0 - - - - - - -
23/08:30pm 7.0 E 5 6 1021.0 - 0.0 - - - - - - -
23/08:00pm 6.7 E 5 7 1021.0 - 0.0 - - - - - - -
23/07:30pm 6.7 E 6 7 1020.9 - 0.0 - - - - - - -
23/07:00pm 8.0 E 4 5 1020.9 - 0.0 - - - - - - -
23/06:30pm 7.1 E 5 5 1020.9 - 0.0 - - - - - - -
23/06:00pm 7.8 E 6 7 1020.8 - 0.0 - - - - - - -
23/05:30pm 8.1 E 7 8 1020.7 - 0.0 - - - - - - -
23/05:00pm 9.4 ENE 6 7 1020.8 - 0.0 - - - - - - -
23/04:30pm 10.0 ENE 6 8 1020.8 - 0.0 - - - - - - -
23/04:00pm 11.2 ENE 8 11 1020.8 - 0.0 - - - - - - -
23/03:30pm 11.5 ENE 10 13 1020.9 - 0.0 - - - - - - -
23/03:00pm 13.1 ENE 9 15 1020.9 - 0.0 - - - - - - -
23/02:30pm 12.9 NE 11 14 1021.2 - 0.0 - - - - - - -
23/02:00pm 12.8 ENE 10 14 1021.3 - 0.0 - - - - - - -
23/01:30pm 12.9 ENE 11 14 1021.7 - 0.0 - - - - - - -
23/01:00pm 13.1 NE 9 11 1022.2 - 0.0 - - - - - - -
23/12:30pm 12.8 ENE 9 12 1022.4 - 0.0 - - - - - - -
23/12:00pm 12.0 E 7 11 1022.9 - 0.0 - - - - - - -
23/11:30am 10.9 E 5 7 1023.6 - 0.0 - - - - - - -
23/11:00am 10.2 E 9 11 1024.0 - 0.0 - - - - - - -
23/10:30am 8.8 S 4 5 1024.1 - 0.0 - - - - - - -
23/10:00am 6.6 S 1 4 1024.4 - 0.0 - - - - - - -
23/09:30am 4.4 S 5 6 1024.5 - 0.0 - - - - - - -
23/09:00am 3.1 S 5 7 1024.5 - 0.0 - - - - - - -
23/08:30am 1.1 S 6 6 1024.4 - 0.0 - - - - - - -
23/08:00am 0.5 S 5 5 1024.5 - 0.0 - - - - - - -
23/07:30am 0.1 S 5 6 1024.3 - 0.0 - - - - - - -
23/07:00am 1.1 S 6 6 1024.2 - 0.0 - - - - - - -
23/06:30am 2.0 S 4 5 1024.1 - 0.0 - - - - - - -
23/06:00am 1.6 S 6 6 1024.1 - 0.0 - - - - - - -
23/05:30am 1.4 S 5 7 1024.1 - 0.0 - - - - - - -
23/05:00am 1.4 S 5 6 1024.1 - 0.0 - - - - - - -
23/04:30am 1.0 S 6 7 1024.2 - 0.0 - - - - - - -
23/04:00am 0.3 S 5 5 1024.3 - 0.0 - - - - - - -
23/03:30am 1.6 S 5 5 1024.5 - 0.0 - - - - - - -
23/03:00am 1.3 S 6 7 1024.8 - 0.0 - - - - - - -
23/02:30am 1.0 S 5 6 1024.9 - 0.0 - - - - - - -
23/02:00am 0.8 SSW 5 5 1025.0 - 0.0 - - - - - - -
23/01:30am 1.0 SSW 3 4 1024.8 - 0.0 - - - - - - -
23/01:00am 1.5 SSW 4 5 1024.8 - 0.0 - - - - - - -
23/12:30am 2.2 S 5 6 1024.8 - 0.0 - - - - - - -
23/12:00am 2.0 S 5 6 1024.8 - 0.0 - - - - - - -
 
Date/Time
EST
Temp

°C
Wind Pressure Rain
since 9am
mm
Weather Cloud Vis
km
Sea
Height
m
Swell
Dir
 
Speed
knots
Gust
knots
hPa Trend Height
m
Period
s
Dir
22/11:30pm 2.9 S 3 5 1024.9 - 0.0 - - - - - - -
22/11:00pm 2.5 SSW 5 6 1025.1 - 0.0 - - - - - - -
22/10:30pm 2.9 S 5 6 1025.3 - 0.0 - - - - - - -
22/10:00pm 3.5 SSW 5 6 1025.3 - 0.0 - - - - - - -
22/09:30pm 3.0 SSW 4 5 1025.6 - 0.0 - - - - - - -
22/09:00pm 3.8 SSW 5 6 1025.4 - 0.0 - - - - - - -
22/08:30pm 4.7 SSW 5 6 1025.1 - 0.0 - - - - - - -
22/08:00pm 5.1 N 1 5 1025.0 - 0.0 - - - - - - -
22/07:30pm 5.3 CALM 0 0 1025.1 - 0.0 - - - - - - -
22/07:00pm 5.7 CALM 0 0 1025.2 - 0.0 - - - - - - -
22/06:30pm 7.1 CALM 0 0 1024.9 - 0.0 - - - - - - -
22/06:00pm 8.5 CALM 0 0 1024.9 - 0.0 - - - - - - -
22/05:30pm 9.1 N 5 6 1024.8 - 0.0 - - - - - - -
22/05:00pm 10.8 CALM 0 3 1024.7 - 0.0 - - - - - - -
22/04:30pm 11.4 N 4 5 1024.5 - 0.0 - - - - - - -
22/04:00pm 11.8 N 5 6 1024.6 - 0.0 - - - - - - -
22/03:30pm 12.3 N 5 6 1024.7 - 0.0 - - - - - - -
22/03:00pm 12.3 N 4 5 1024.7 - 0.0 - - - - - - -
22/02:30pm 12.4 N 4 6 1024.7 - 0.0 - - - - - - -
22/02:00pm 12.1 NNE 7 8 1024.8 - 0.0 - - - - - - -
22/01:30pm 12.5 NNE 7 9 1024.8 - 0.0 - - - - - - -
22/01:00pm 13.1 N 5 8 1025.4 - 0.0 - - - - - - -
22/12:30pm 12.8 N 4 6 1025.9 - 0.0 - - - - - - -
22/12:00pm 12.8 N 2 5 1026.3 - 0.0 - - - - - - -
22/11:30am 12.6 ENE 2 5 1026.7 - 0.0 - - - - - - -
22/11:00am 10.4 SSW 1 4 1026.8 - 0.0 - - - - - - -
22/10:30am 8.9 SSE 4 5 1026.9 - 0.0 - - - - - - -
22/10:00am 6.4 S 3 5 1027.0 - 0.0 - - - - - - -
22/09:30am 5.1 S 5 6 1027.0 - 0.0 - - - - - - -
22/09:00am 3.7 S 5 6 1027.1 - 0.2 - - - - - - -
22/08:30am 2.3 S 6 7 1026.9 - 0.2 - - - - - - -
22/08:00am 1.6 S 7 8 1026.6 - 0.0 - - - - - - -
22/07:30am -0.2 S 6 7 1026.1 - 0.0 - - - - - - -
22/07:00am 1.3 S 5 6 1025.8 - 0.0 - - - - - - -
22/06:30am 0.6 S 5 5 1025.7 - 0.0 - - - - - - -
22/06:00am 1.7 S 6 7 1025.3 - 0.0 - - - - - - -
22/05:30am 1.4 S 7 8 1025.1 - 0.0 - - - - - - -
22/05:00am 0.9 S 4 6 1025.1 - 0.0 - - - - - - -
22/04:30am 0.2 S 4 5 1025.3 - 0.0 - - - - - - -
22/04:00am 1.2 S 6 7 1025.2 - 0.0 - - - - - - -
22/03:30am 2.4 S 3 6 1025.2 - 0.0 - - - - - - -
22/03:00am 3.0 S 7 7 1025.4 - 0.0 - - - - - - -
22/02:30am 1.8 S 6 7 1025.5 - 0.0 - - - - - - -
22/02:00am 0.7 S 6 7 1025.4 - 0.0 - - - - - - -
22/01:30am 0.3 S 4 5 1025.4 - 0.0 - - - - - - -
22/01:00am 1.2 S 3 7 1025.4 - 0.0 - - - - - - -
22/12:30am 1.0 S 5 6 1025.6 - 0.0 - - - - - - -
22/12:00am 1.7 S 5 6 1025.9 - 0.0 - - - - - - -
 
Date/Time
EST
Temp

°C
Wind Pressure Rain
since 9am
mm
Weather Cloud Vis
km
Sea
Height
m
Swell
Dir
 
Speed
knots
Gust
knots
hPa Trend Height
m
Period
s
Dir
21/11:30pm 2.9 S 5 6 1026.1 - 0.0 - - - - - - -
21/11:00pm 2.4 S 5 6 1026.2 - 0.0 - - - - - - -
21/10:30pm 2.2 S 5 6 1026.1 - 0.0 - - - - - - -
21/10:00pm 2.4 S 5 6 1026.0 - 0.0 - - - - - - -
21/09:30pm 2.6 S 5 6 1026.0 - 0.0 - - - - - - -
21/09:00pm 3.6 S 4 5 1025.9 - 0.0 - - - - - - -
21/08:30pm 3.2 SSW 2 5 1025.8 - 0.0 - - - - - - -
21/08:00pm 5.0 SW 5 5 1025.9 - 0.0 - - - - - - -
21/07:30pm 6.3 E 3 4 1025.9 - 0.0 - - - - - - -
21/07:00pm 4.8 E 2 4 1025.8 - 0.0 - - - - - - -
21/06:30pm 6.1 E 6 7 1025.5 - 0.0 - - - - - - -
21/06:00pm 7.2 E 6 6 1025.4 - 0.0 - - - - - - -
21/05:30pm 8.4 ENE 6 7 1025.4 - 0.0 - - - - - - -
21/05:00pm 9.4 ENE 6 8 1025.3 - 0.0 - - - - - - -
21/04:30pm 10.6 ENE 7 9 1025.1 - 0.0 - - - - - - -
21/04:00pm 11.4 ENE 8 10 1024.9 - 0.0 - - - - - - -
21/03:30pm 12.1 NE 7 8 1025.0 - 0.0 - - - - - - -
21/03:00pm 12.4 ENE 7 9 1024.8 - 0.0 - - - - - - -
21/02:30pm 12.2 ENE 9 11 1024.8 - 0.0 - - - - - - -
21/02:00pm 12.1 ENE 8 11 1025.0 - 0.0 - - - - - - -
21/01:30pm 11.9 ENE 9 11 1025.2 - 0.0 - - - - - - -
21/01:00pm 12.2 ENE 9 13 1025.4 - 0.0 - - - - - - -
21/12:30pm 12.3 E 8 10 1025.6 - 0.0 - - - - - - -
21/12:00pm 11.7 ENE 8 11 1025.9 - 0.0 - - - - - - -
21/11:30am 10.9 E 5 7 1026.3 - 0.0 - - - - - - -
21/11:00am 9.1 SSE 4 5 1026.7 - 0.0 - - - - - - -
21/10:30am 7.8 S 4 4 1026.9 - 0.0 - - - - - - -

Other Formats:

Comma delimited format used in spreadsheet applications
http://www.bom.gov.au/fwo/IDV60701/IDV60701.94953.axf

JavaScript Object Notation format (JSON) in row-major order
http://www.bom.gov.au/fwo/IDV60701/IDV60701.94953.json